Flight Track Log - Related Links

Times and Time Zones

All times are in EDT time to prevent confusion due to time zone crossing. See the N220JL flight status page for this flight to view local times or setup timezone preferences in your user account.

Time Position Orientation Groundspeed Altitude Reporting Facility
EDT Latitude Longitude Course Direction KTS MPH feet Rate Location/Type
Mon 01:33:36 PM 29.5078 -95.4939 275° West 149 171 200  Level FlightAware
Mon 01:33:42 PM 29.5081 -95.4993 274° West 160 184 300 1,333 Climbing FlightAware
Mon 01:33:45 PM 29.5077 -95.5025 262° West 164 189 400 1,091 Climbing FlightAware
Mon 01:34:04 PM 29.4984 -95.5164 232° Southwest 164 189 700 1,235 Climbing FlightAware
Mon 01:34:19 PM 29.4862 -95.5198 194° South 184 212 1,100 1,448 Climbing FlightAware
Mon 01:34:33 PM 29.4739 -95.5159 165° South 193 222 1,400 1,154 Climbing FlightAware
Mon 01:34:45 PM 29.4639 -95.5082 146° Southeast 207 238 1,600 1,200 Climbing FlightAware
Mon 01:34:58 PM 29.4538 -95.4984 140° Southeast 218 251 1,900 947 Climbing FlightAware
Mon 01:35:04 PM 29.4489 -95.4939 141° Southeast 226 260 1,900 882 Level FlightAware
Mon 01:35:32 PM 29.4206 -95.4799 157° South 234 269 2,400 857 Climbing FlightAware
Mon 01:35:53 PM 29.3967 -95.4716 163° South 257 296 2,600 977 Climbing FlightAware
Mon 01:36:15 PM 29.3782 -95.4488 133° Southeast 257 296 3,100 800 Climbing FlightAware
Mon 01:36:23 PM 29.3769 -95.4366 97° East 277 319 3,000 -333 Descending FlightAware
Mon 01:36:51 PM 29.3804 -95.3934 85° East 286 329 2,900 -293 Descending FlightAware
Mon 01:37:04 PM 29.3811 -95.3753 87° East 278 320 2,800  Descending FlightAware
Mon 01:37:14 PM 29.3817 -95.3603 87° East 272 313 2,900 429 Climbing FlightAware
Mon 01:37:18 PM 29.3817 -95.3543 90° East 268 308 2,900 462 Level FlightAware
Mon 01:37:27 PM 29.3821 -95.3424 88° East 259 298 3,000 750 Climbing FlightAware
Mon 01:37:34 PM 29.3821 -95.3338 90° East 252 290 3,100 923 Climbing FlightAware
Mon 01:37:40 PM 29.3824 -95.3258 88° East 247 284 3,200 333 Climbing FlightAware
Mon 01:37:52 PM 29.3834 -95.3105 86° East 242 278 3,200 222 Level FlightAware
Mon 01:38:07 PM 29.3845 -95.2937 86° East 237 273 3,300 818 Climbing FlightAware
Mon 01:38:14 PM 29.3852 -95.2825 86° East 231 266 3,500 1,059 Climbing FlightAware
Mon 01:38:24 PM 29.3866 -95.2706 82° East 226 260 3,600 857 Climbing FlightAware
Mon 01:38:28 PM 29.3869 -95.2683 81° East 224 258 3,700 857 Climbing FlightAware
Mon 01:38:31 PM 29.3883 -95.2637 71° East 223 257 3,700  Level FlightAware
Mon 01:38:34 PM 29.3894 -95.2603 70° East 222 255 3,700 429 Level FlightAware
Mon 01:38:45 PM 29.3942 -95.2483 65° Northeast 221 254 3,800 571 Climbing FlightAware
Mon 01:38:55 PM 29.3983 -95.2376 66° East 219 252 3,900 500 Climbing FlightAware
Mon 01:39:09 PM 29.4037 -95.2237 66° East 216 249 4,000 600 Climbing FlightAware
Mon 01:39:15 PM 29.4066 -95.2167 65° Northeast 214 246 4,100 1,200 Climbing FlightAware
Mon 01:39:19 PM 29.4075 -95.2130 74° East 213 245 4,200 750 Climbing FlightAware
Mon 01:39:23 PM 29.4089 -95.2084 71° East 213 245 4,200 750 Level FlightAware
Mon 01:39:27 PM 29.4096 -95.2041 79° East 212 244 4,300 857 Climbing FlightAware
Mon 01:39:30 PM 29.4096 -95.2002 90° East 212 244 4,300 600 Level FlightAware
Mon 01:39:37 PM 29.4103 -95.1929 84° East 214 246 4,400 1,000 Climbing FlightAware
Mon 01:39:48 PM 29.4106 -95.1796 89° East 226 260 4,600 649 Climbing FlightAware
Mon 01:40:14 PM 29.4113 -95.1447 89° East 256 295 4,800 293 Climbing FlightAware
Mon 01:40:29 PM 29.4113 -95.1228 90° East 269 310 4,800  Level FlightAware
Mon 01:40:45 PM 29.4109 -95.0993 91° East 280 322 4,800  Level FlightAware
Mon 01:41:00 PM 29.4109 -95.0760 90° East 290 334 4,800 387 Level FlightAware
Mon 01:41:16 PM 29.4106 -95.0508 91° East 294 338 5,000 909 Climbing FlightAware
Mon 01:41:33 PM 29.4106 -95.0261 90° East 290 334 5,300 1,286 Climbing FlightAware
Mon 01:41:44 PM 29.4109 -95.0086 89° East 288 331 5,600 1,429 Climbing FlightAware
Mon 01:41:54 PM 29.4155 -94.9939 70° East 287 330 5,800 1,385 Climbing FlightAware
Mon 01:41:57 PM 29.4183 -94.9897 53° Northeast 286 329 5,900 2,571 Climbing FlightAware
Mon 01:42:01 PM 29.4217 -94.9858 45° Northeast 285 328 6,100 2,000 Climbing FlightAware
Mon 01:42:06 PM 29.4266 -94.9808 42° Northeast 283 326 6,200 2,000 Climbing FlightAware
Mon 01:42:10 PM 29.4307 -94.9778 33° Northeast 282 325 6,400 2,000 Climbing FlightAware
Mon 01:42:15 PM 29.4365 -94.9752 21° North 279 321 6,500 1,950 Climbing FlightAware
Mon 01:42:50 PM 29.4771 -94.9853 348° North 255 293 7,700 2,000 Climbing FlightAware
Mon 01:43:30 PM 29.5160 -95.0090 332° Northwest 238 274 9,000 1,978 Climbing FlightAware
Mon 01:44:21 PM 29.5684 -95.0153 41° Northeast 239 275 10,700 1,964 Climbing FlightAware
Mon 01:44:25 PM 29.5713 -95.0112 51° Northeast 239 275 10,800 1,826 Climbing FlightAware
Mon 01:44:44 PM 29.5817 -94.9904 63° Northeast 237 273 11,400 1,377 Climbing FlightAware
Mon 01:45:26 PM 29.6040 -94.9430 62° Northeast 253 291 12,200 1,000 Climbing FlightAware
Mon 01:45:32 PM 29.6070 -94.9356 65° Northeast 258 297 12,200 316 Level FlightAware
Mon 01:45:45 PM 29.6108 -94.9170 77° East 268 308 12,300 419 Climbing FlightAware
Mon 01:46:15 PM 29.6176 -94.8717 80° East 288 331 12,500 409 Climbing FlightAware
Mon 01:46:29 PM 29.6211 -94.8508 79° East 295 339 12,600 273 Climbing FlightAware
Mon 01:46:59 PM 29.6304 -94.8026 77° East 306 352 12,700 295 Climbing FlightAware
Mon 01:47:30 PM 29.6400 -94.7536 77° East 313 360 12,900 1,352 Climbing FlightAware
Mon 01:48:10 PM 29.6523 -94.6907 77° East 292 336 14,300 2,036 Climbing FlightAware
Mon 01:48:26 PM 29.6582 -94.6676 73° East 282 325 14,800 1,902 Climbing FlightAware
Mon 01:48:51 PM 29.6685 -94.6330 71° East 271 312 15,600 1,950 Climbing FlightAware
Mon 01:49:06 PM 29.6736 -94.6132 73° East 263 303 16,100 1,000 Climbing FlightAware
Mon 01:51:03 PM 29.7142 -94.4541 74° East 291 335 17,800 770 Climbing FlightAware
Mon 01:51:34 PM 29.7265 -94.4074 73° East 305 351 18,000 714 Climbing FlightAware
Mon 01:52:27 PM 29.7482 -94.3235 74° East 305 351 18,800 857 Climbing FlightAware
Mon 01:52:51 PM 29.7577 -94.2863 74° East 303 349 19,100 873 Climbing FlightAware
Mon 01:53:22 PM 29.7694 -94.2396 74° East 302 348 19,600 920 Climbing FlightAware
Mon 01:55:21 PM 29.8161 -94.0578 74° East 294 338 21,400 909 Climbing FlightAware
Mon 01:55:34 PM 29.8209 -94.0386 74° East 293 337 21,600 923 Climbing FlightAware
Mon 01:56:00 PM 29.8309 -93.9997 73° East 291 335 22,000 864 Climbing FlightAware
Mon 01:57:32 PM 29.8652 -93.8645 74° East 289 333 23,300 850 Climbing FlightAware
Mon 01:57:53 PM 29.8728 -93.8336 74° East 289 333 23,600 941 Climbing FlightAware
Mon 01:58:23 PM 29.8841 -93.7889 74° East 289 333 24,100 933 Climbing FlightAware
Mon 01:59:23 PM 29.9064 -93.7001 74° East 287 330 25,000 897 Climbing FlightAware
Mon 01:59:50 PM 29.9160 -93.6617 74° East 286 329 25,400 842 Climbing FlightAware
Mon 02:00:20 PM 29.9274 -93.6175 73° East 286 329 25,800 900 Climbing FlightAware
Mon 02:00:50 PM 29.9380 -93.5739 74° East 285 328 26,300 900 Climbing FlightAware
Mon 02:01:20 PM 29.9493 -93.5295 74° East 283 326 26,700 857 Climbing FlightAware
Mon 02:02:21 PM 29.9709 -93.4427 74° East 279 321 27,600 923 Climbing FlightAware
Mon 02:02:51 PM 29.9813 -93.4001 74° East 277 319 28,100 900 Climbing FlightAware
Mon 02:03:21 PM 29.9919 -93.3573 74° East 275 316 28,500 885 Climbing FlightAware
Mon 02:03:52 PM 30.0025 -93.3148 74° East 273 314 29,000 787 Climbing FlightAware
Mon 02:04:22 PM 30.0132 -93.2722 74° East 276 318 29,300 590 Climbing FlightAware
Mon 02:04:53 PM 30.0241 -93.2276 74° East 280 322 29,600 517 Climbing FlightAware
Mon 02:05:20 PM 30.0335 -93.1889 74° East 282 325 29,800 490 Climbing FlightAware
Mon 02:05:42 PM 30.0413 -93.1564 74° East 284 327 30,000 577 Climbing FlightAware
Mon 02:06:12 PM 30.0526 -93.1122 74° East 284 327 30,300 571 Climbing FlightAware
Mon 02:06:45 PM 30.0643 -93.0643 74° East 286 329 30,600 563 Climbing FlightAware
Mon 02:07:16 PM 30.0756 -93.0187 74° East 287 330 30,900 590 Climbing FlightAware
Mon 02:07:46 PM 30.0863 -92.9738 75° East 288 331 31,200 500 Climbing FlightAware
Mon 02:08:16 PM 30.0973 -92.9293 74° East 288 331 31,400 500 Climbing FlightAware
Mon 02:08:46 PM 30.1083 -92.8851 74° East 288 331 31,700 600 Climbing FlightAware
Mon 02:09:16 PM 30.1189 -92.8405 75° East 288 331 32,000 563 Climbing FlightAware
Mon 02:09:50 PM 30.1313 -92.7903 74° East 287 330 32,300 563 Climbing FlightAware
Mon 02:10:20 PM 30.1420 -92.7460 74° East 287 330 32,600 590 Climbing FlightAware
Mon 02:10:51 PM 30.1529 -92.7011 74° East 286 329 32,900 484 Climbing FlightAware
Mon 02:11:22 PM 30.1639 -92.6557 74° East 286 329 33,100 492 Climbing FlightAware
Mon 02:11:52 PM 30.1745 -92.6108 75° East 286 329 33,400 590 Climbing FlightAware
Mon 02:12:23 PM 30.1855 -92.5657 74° East 285 328 33,700 621 Climbing FlightAware
Mon 02:12:50 PM 30.1951 -92.5265 74° East 283 326 34,000 517 Climbing FlightAware
Mon 02:13:21 PM 30.2058 -92.4818 75° East 282 325 34,200 492 Climbing FlightAware
Mon 02:13:51 PM 30.2164 -92.4382 74° East 282 325 34,500 609 Climbing FlightAware
Mon 02:14:30 PM 30.2298 -92.3811 75° East 282 325 34,900 429 Climbing FlightAware
Mon 02:15:01 PM 30.2404 -92.3366 75° East 285 328 35,000 290 Climbing FlightAware
Mon 02:15:32 PM 30.2518 -92.2904 74° East 288 331 35,200 393 Climbing FlightAware
Mon 02:16:02 PM 30.2625 -92.2457 74° East 291 335 35,400 295 Climbing FlightAware
Mon 02:16:33 PM 30.2734 -92.1991 75° East 293 337 35,500 295 Climbing FlightAware
Mon 02:17:03 PM 30.2847 -92.1525 74° East 295 339 35,700 393 Climbing FlightAware
Mon 02:17:34 PM 30.2958 -92.1054 75° East 296 341 35,900 333 Climbing FlightAware
Mon 02:18:15 PM 30.3108 -92.0420 75° East 296 341 36,100 294 Climbing FlightAware
Mon 02:19:57 PM 30.3472 -91.8865 75° East 297 342 36,600 313 Climbing FlightAware
Mon 02:20:29 PM 30.3589 -91.8375 75° East 297 342 36,800 270 Climbing FlightAware
Mon 02:21:26 PM 30.3799 -91.7489 75° East 298 343 37,000 136 Climbing FlightAware
Mon 02:21:57 PM 30.3908 -91.7004 75° East 303 349 37,000  Level FlightAware
Mon 02:23:47 PM 30.4320 -91.5241 75° East 315 362 37,000  Level FlightAware
Mon 02:27:08 PM 30.5457 -91.2164 67° East 314 361 37,000  Level FlightAware
Mon 02:28:15 PM 30.6127 -91.1343 47° Northeast 316 364 37,000  Level FlightAware
Mon 02:29:37 PM 30.6952 -91.0315 47° Northeast 317 365 37,000  Level FlightAware
Mon 02:30:40 PM 30.7577 -90.9529 47° Northeast 318 366 37,000  Level FlightAware
Mon 02:34:06 PM 30.9290 -90.6630 55° Northeast 322 371 37,000  Level FlightAware
Mon 02:34:44 PM 30.9560 -90.6160 56° Northeast 322 371 37,000  Level FlightAware
Mon 02:35:28 PM 30.9860 -90.5620 57° Northeast 322 371 37,000  Level FlightAware
Mon 02:36:04 PM 31.0110 -90.5170 57° Northeast 322 371 37,000  Level FlightAware
Mon 02:36:58 PM 31.0670 -90.4120 58° Northeast 325 374 37,000  Level FlightAware
Mon 02:37:34 PM 31.0920 -90.3670 57° Northeast 325 374 37,000  Level FlightAware
Mon 02:38:10 PM 31.1170 -90.3220 57° Northeast 325 374 37,000  Level FlightAware
Mon 02:39:06 PM 31.1730 -90.2180 58° Northeast 325 374 37,000  Level FlightAware
Mon 02:39:40 PM 31.2010 -90.1670 57° Northeast 325 374 37,000  Level FlightAware
Mon 02:40:15 PM 31.2280 -90.1170 58° Northeast 325 374 37,000  Level FlightAware
Mon 02:40:48 PM 31.2560 -90.0640 58° Northeast 326 375 37,000  Level FlightAware
Mon 02:41:21 PM 31.2820 -90.0160 58° Northeast 326 375 37,000  Level FlightAware
Mon 02:41:59 PM 31.3130 -89.9600 57° Northeast 327 376 37,000  Level FlightAware
Mon 02:42:33 PM 31.3400 -89.9090 58° Northeast 327 376 37,000  Level FlightAware
Mon 02:43:05 PM 31.3680 -89.8590 57° Northeast 328 377 37,000  Level FlightAware
Mon 02:43:42 PM 31.3960 -89.8060 58° Northeast 328 377 37,000  Level FlightAware
Mon 02:44:27 PM 31.4300 -89.7430 58° Northeast 328 377 37,000  Level FlightAware
Mon 02:44:52 PM 31.4540 -89.6990 57° Northeast 328 377 37,000  Level FlightAware
Mon 02:45:40 PM 31.4870 -89.6370 58° Northeast 328 377 37,000  Level FlightAware
Mon 02:46:16 PM 31.5110 -89.5900 59° Northeast 328 377 37,000  Level FlightAware
Mon 02:46:50 PM 31.5350 -89.5470 57° Northeast 328 377 37,000  Level FlightAware
Mon 02:47:27 PM 31.5600 -89.4990 59° Northeast 328 377 37,000  Level FlightAware
Mon 02:48:03 PM 31.5840 -89.4530 59° Northeast 328 377 37,000  Level FlightAware
Mon 02:48:39 PM 31.6090 -89.4070 57° Northeast 328 377 37,000  Level FlightAware
Mon 02:49:15 PM 31.6340 -89.3610 57° Northeast 328 377 37,000  Level FlightAware
Mon 02:49:53 PM 31.6600 -89.3120 58° Northeast 328 377 37,000  Level FlightAware
Mon 02:50:29 PM 31.6840 -89.2660 58° Northeast 328 377 37,000  Level FlightAware
Mon 02:51:05 PM 31.7090 -89.2190 58° Northeast 328 377 37,000  Level FlightAware
Mon 02:51:41 PM 31.7340 -89.1730 57° Northeast 328 377 37,000  Level FlightAware
Mon 02:52:15 PM 31.7570 -89.1290 58° Northeast 328 377 37,000  Level FlightAware
Mon 02:52:51 PM 31.7810 -89.0830 58° Northeast 328 377 37,000  Level FlightAware
Mon 02:53:27 PM 31.8060 -89.0370 57° Northeast 328 377 37,000  Level FlightAware
Mon 02:54:03 PM 31.8310 -88.9900 58° Northeast 328 377 37,000  Level FlightAware
Mon 02:54:36 PM 31.9260 -88.8110 58° Northeast 333 383 37,000  Level FlightAware
Mon 02:55:16 PM 31.9540 -88.7590 58° Northeast 333 383 37,000  Level FlightAware
Mon 02:55:52 PM 31.9800 -88.7120 57° Northeast 333 383 37,000  Level FlightAware
Mon 02:56:30 PM 32.0070 -88.6630 57° Northeast 333 383 37,000  Level FlightAware
Mon 02:57:04 PM 32.0310 -88.6190 57° Northeast 333 383 37,000  Level FlightAware
Mon 02:57:40 PM 32.0570 -88.5720 57° Northeast 333 383 37,000  Level FlightAware
Mon 02:58:16 PM 32.0820 -88.5260 57° Northeast 333 383 37,000  Level FlightAware
Mon 02:58:52 PM 32.1080 -88.4790 57° Northeast 333 383 37,000  Level FlightAware
Mon 02:59:28 PM 32.1340 -88.4320 57° Northeast 333 383 37,000  Level FlightAware
Mon 03:00:11 PM 32.1640 -88.3770 57° Northeast 333 383 37,000  Level FlightAware
Mon 03:00:47 PM 32.1900 -88.3300 57° Northeast 333 383 37,000  Level FlightAware
Mon 03:01:24 PM 32.2170 -88.2820 56° Northeast 333 383 37,000  Level FlightAware
Mon 03:02:00 PM 32.2420 -88.2350 58° Northeast 333 383 37,000 -480 Level FlightAware
Mon 03:02:39 PM 32.2790 -88.0290 78° East 356 410 36,400 -480 Descending FlightAware
Mon 03:03:15 PM 32.2990 -87.9740 67° East 356 410 36,400  Level FlightAware
Mon 03:03:49 PM 32.3170 -87.9220 68° East 356 410 36,400 -1,048 Level FlightAware
Mon 03:04:18 PM 32.3470 -87.8400 67° East 369 425 35,300 -971 Descending FlightAware
Mon 03:04:57 PM 32.3690 -87.7780 67° East 369 425 35,300  Level FlightAware
Mon 03:05:34 PM 32.3900 -87.7200 67° East 369 425 35,300  Level FlightAware
Mon 03:06:10 PM 32.4100 -87.6630 67° East 369 425 35,300 -1,130 Level FlightAware
Mon 03:06:43 PM 32.4440 -87.5680 67° East 373 429 34,000 -1,083 Descending FlightAware
Mon 03:07:22 PM 32.4670 -87.5050 67° East 373 429 34,000 -1,026 Level FlightAware
Mon 03:07:59 PM 32.4970 -87.4200 67° East 384 442 32,700 -1,097 Descending FlightAware
Mon 03:08:55 PM 32.5320 -87.3230 67° East 386 444 32,300 -727 Descending FlightAware
Mon 03:09:38 PM 32.5630 -87.2350 67° East 387 445 31,500 -857 Descending FlightAware
Mon 03:10:19 PM 32.5890 -87.1590 68° East 389 448 31,100 -312 Descending FlightAware
Mon 03:10:55 PM 32.6110 -87.0990 66° East 389 448 31,100 -1,481 Level FlightAware
Mon 03:11:36 PM 32.6470 -86.9960 67° East 394 453 29,200 -1,425 Descending FlightAware
Mon 03:12:15 PM 32.6700 -86.9300 67° East 394 453 29,200 -1,000 Level FlightAware
Mon 03:12:54 PM 32.7010 -86.8410 67° East 390 449 27,900 -1,522 Descending FlightAware
Mon 03:13:22 PM 32.7200 -86.7850 68° East 388 447 27,500 -943 Descending FlightAware
Mon 03:14:04 PM 32.7500 -86.6990 67° East 387 445 26,800 -1,000 Descending FlightAware
Mon 03:14:40 PM 32.7730 -86.6330 67° East 387 445 26,200 -986 Descending FlightAware
Mon 03:15:17 PM 32.7980 -86.5600 68° East 387 445 25,600 -971 Descending FlightAware
Mon 03:15:48 PM 32.8210 -86.4950 67° East 387 445 25,100 -493 Descending FlightAware
Mon 03:16:30 PM 32.8460 -86.4250 67° East 387 445 25,000 -825 Descending FlightAware
Mon 03:17:08 PM 32.8740 -86.3410 68° East 381 438 24,000 -779 Descending FlightAware
Mon 03:17:47 PM 32.8980 -86.2720 67° East 380 437 24,000  Level FlightAware
Mon 03:18:26 PM 32.9250 -86.1910 68° East 371 427 24,000  Level FlightAware
Mon 03:19:06 PM 32.9510 -86.1140 68° East 368 423 24,000 -514 Level FlightAware
Mon 03:19:36 PM 32.9710 -86.0570 67° East 376 433 23,400 -1,313 Descending FlightAware
Mon 03:20:10 PM 32.9930 -85.9910 68° East 386 444 22,600 -1,273 Descending FlightAware
Mon 03:20:42 PM 33.0140 -85.9300 68° East 384 442 22,000 -1,235 Descending FlightAware
Mon 03:21:18 PM 33.0360 -85.8650 68° East 376 433 21,200 -989 Descending FlightAware
Mon 03:22:13 PM 33.0700 -85.7650 68° East 370 426 20,500 -1,375 Descending FlightAware
Mon 03:22:54 PM 33.0990 -85.6790 68° East 365 420 19,000 -1,760 Descending FlightAware
Mon 03:23:28 PM 33.1200 -85.6160 68° East 361 415 18,300 -1,333 Descending FlightAware
Mon 03:24:06 PM 33.1430 -85.5460 69° East 355 409 17,400 -1,457 Descending FlightAware
Mon 03:24:38 PM 33.1620 -85.4880 69° East 349 402 16,600 -1,594 Descending FlightAware
Mon 03:25:10 PM 33.1820 -85.4300 68° East 347 399 15,700 -1,629 Descending FlightAware
Mon 03:25:48 PM 33.2040 -85.3640 68° East 345 397 14,700 -1,541 Descending FlightAware
Mon 03:26:24 PM 33.2260 -85.3000 68° East 340 391 13,800 -1,583 Descending FlightAware
Mon 03:27:00 PM 33.2460 -85.2380 69° East 330 380 12,800 -1,588 Descending FlightAware
Mon 03:27:32 PM 33.2640 -85.1850 68° East 323 372 12,000 -1,500 Descending FlightAware
Mon 03:27:56 PM 33.2770 -85.1480 67° East 318 366 11,400 -1,688 Descending FlightAware
Mon 03:28:04 PM 33.2860 -85.1360 48° Northeast 313 360 11,100 -1,500 Descending FlightAware
Mon 03:28:20 PM 33.3050 -85.1250 26° Northeast 299 344 10,800 -750 Descending FlightAware
Mon 03:28:36 PM 33.3280 -85.1240 North 285 328 10,700 -360 Descending FlightAware
Mon 03:29:10 PM 33.3690 -85.1120 14° North 269 310 10,500 -618 Descending FlightAware
Mon 03:29:44 PM 33.4090 -85.0970 17° North 277 319 10,000 -1,071 Descending FlightAware
Mon 03:30:06 PM 33.4390 -85.0850 18° North 292 336 9,500 -1,174 Descending FlightAware
Mon 03:30:30 PM 33.4710 -85.0710 20° North 301 346 9,100 -955 Descending FlightAware
Mon 03:30:50 PM 33.4960 -85.0590 22° Northeast 303 349 8,800 -938 Descending FlightAware
Mon 03:31:02 PM 33.5120 -85.0520 20° North 303 349 8,600 -1,125 Descending FlightAware
Mon 03:31:22 PM 33.5380 -85.0400 21° North 296 341 8,200 -1,091 Descending FlightAware
Mon 03:31:46 PM 33.5680 -85.0280 18° North 283 326 7,800 -955 Descending FlightAware
Mon 03:32:06 PM 33.5910 -85.0180 20° North 272 313 7,500 -1,000 Descending FlightAware
Mon 03:32:22 PM 33.6100 -85.0100 19° North 268 308 7,200 -1,000 Descending FlightAware
Mon 03:32:36 PM 33.6280 -85.0030 18° North 269 310 7,000 -882 Descending FlightAware
Mon 03:32:56 PM 33.6440 -84.9960 20° North 271 312 6,700 -1,050 Descending FlightAware
Mon 03:33:16 PM 33.6740 -84.9830 20° North 275 316 6,300 -1,167 Descending FlightAware
Mon 03:33:32 PM 33.6950 -84.9740 20° North 279 321 6,000 -1,059 Descending FlightAware
Mon 03:33:50 PM 33.7150 -84.9660 18° North 281 323 5,700 -1,024 Descending FlightAware
Mon 03:34:13 PM 33.7430 -84.9530 21° North 281 323 5,300 -1,067 Descending FlightAware
Mon 03:34:35 PM 33.7710 -84.9410 20° North 275 316 4,900 -909 Descending FlightAware
Mon 03:34:46 PM 33.7860 -84.9350 18° North 272 313 4,800 -387 Descending FlightAware
Mon 03:35:06 PM 33.8090 -84.9260 18° North 271 312 4,700 -130 Descending FlightAware
Mon 03:35:32 PM 33.8390 -84.9140 18° North 271 312 4,700  Level FlightAware
Mon 03:36:04 PM 33.8760 -84.8990 19° North 270 311 4,700  Level FlightAware
Mon 03:36:14 PM 33.8850 -84.8920 33° Northeast 269 310 4,700  Level FlightAware
Mon 03:36:41 PM 33.9110 -84.8780 24° Northeast 269 310 4,700 -91 Level FlightAware
Mon 03:37:20 PM 33.9220 -84.7980 81° East 274 315 4,600 -563 Descending FlightAware
Mon 03:37:45 PM 33.9330 -84.7620 70° East 275 316 4,100 -1,116 Descending FlightAware
Mon 03:38:03 PM 33.9400 -84.7380 71° East 275 316 3,800 -545 Descending FlightAware
Mon 03:38:18 PM 33.9480 -84.7140 68° East 270 311 3,800 -486 Level FlightAware
Mon 03:38:40 PM 33.9590 -84.6860 65° Northeast 245 282 3,500 -1,143 Descending FlightAware
Mon 03:39:00 PM 33.9670 -84.6630 67° East 234 269 3,000 -1,200 Descending FlightAware
Mon 03:39:20 PM 33.9780 -84.6400 60° Northeast 221 254 2,700 -667 Descending FlightAware
Mon 03:39:36 PM 33.9830 -84.6230 70° East 210 242 2,600 -167 Descending FlightAware
Mon 03:39:56 PM 33.9850 -84.6020 83° East 189 217 2,600 -146 Level FlightAware
Mon 03:40:17 PM 33.9870 -84.5810 83° East 182 209 2,500 -600 Descending FlightAware
Mon 03:40:36 PM 33.9880 -84.5620 86° East 174 200 2,200 -828 Descending FlightAware
Mon 03:40:46 PM 33.9920 -84.5560 51° Northeast 155 178 2,100 -429 Descending FlightAware
Mon 03:40:50 PM 33.9940 -84.5540 40° Northeast 145 167 2,100 -1,000 Level FlightAware
Mon 03:40:58 PM 33.9990 -84.5540 360° North 134 154 1,900 -1,313 Descending FlightAware
Mon 03:41:22 PM 34.0120 -84.5610 336° Northwest 125 144 1,400 -1,167 Descending FlightAware
Mon 03:41:34 PM 34.0140 -84.5690 287° West 127 146 1,200 -1,125 Descending FlightAware
Mon 03:41:38 PM 34.0140 -84.5720 270° West 126 145 1,100 -1,500 Descending FlightAware
Mon 03:41:42 PM 34.0140 -84.5750 270° West 126 145 1,000 -1,500 Descending FlightAware

Login

Don't have an account? Register now (free) for customized features, flight alerts, and more!